sensor_id;sensor_type;location;lat;lon;timestamp;P1;P2;P0
67376;PMS7003;54261;46.086;6.588;2023-06-24T00:00:19;5.67;5.67;4.67
67376;PMS7003;54261;46.086;6.588;2023-06-24T00:05:21;6.00;5.67;4.67
67376;PMS7003;54261;46.086;6.588;2023-06-24T00:10:23;6.00;6.00;4.33
67376;PMS7003;54261;46.086;6.588;2023-06-24T00:15:25;7.00;7.00;5.33
67376;PMS7003;54261;46.086;6.588;2023-06-24T00:20:27;5.67;5.00;4.33
67376;PMS7003;54261;46.086;6.588;2023-06-24T00:25:29;6.33;6.33;5.00
67376;PMS7003;54261;46.086;6.588;2023-06-24T00:30:31;8.00;6.00;4.00
67376;PMS7003;54261;46.086;6.588;2023-06-24T00:35:33;6.00;5.00;4.33
67376;PMS7003;54261;46.086;6.588;2023-06-24T00:40:36;6.33;6.33;5.33
67376;PMS7003;54261;46.086;6.588;2023-06-24T00:45:39;5.00;5.00;3.33
67376;PMS7003;54261;46.086;6.588;2023-06-24T00:50:41;9.67;8.67;7.00
67376;PMS7003;54261;46.086;6.588;2023-06-24T00:55:47;5.00;5.00;4.00
67376;PMS7003;54261;46.086;6.588;2023-06-24T01:00:49;9.00;7.00;6.00
67376;PMS7003;54261;46.086;6.588;2023-06-24T01:05:58;6.00;6.00;4.00
67376;PMS7003;54261;46.086;6.588;2023-06-24T01:11:00;6.33;5.33;4.33
67376;PMS7003;54261;46.086;6.588;2023-06-24T01:16:04;6.00;6.00;5.00
67376;PMS7003;54261;46.086;6.588;2023-06-24T01:21:21;8.00;8.00;7.00
67376;PMS7003;54261;46.086;6.588;2023-06-24T01:32:29;8.00;8.00;6.00
67376;PMS7003;54261;46.086;6.588;2023-06-24T01:37:35;5.00;5.00;5.00
67376;PMS7003;54261;46.086;6.588;2023-06-24T01:42:46;5.00;5.00;4.33
67376;PMS7003;54261;46.086;6.588;2023-06-24T01:47:53;4.33;4.33;4.00
67376;PMS7003;54261;46.086;6.588;2023-06-24T01:53:03;7.00;5.33;5.00
67376;PMS7003;54261;46.086;6.588;2023-06-24T01:58:07;5.67;5.67;5.00
67376;PMS7003;54261;46.086;6.588;2023-06-24T02:03:10;6.00;6.00;5.00
67376;PMS7003;54261;46.086;6.588;2023-06-24T02:08:14;4.67;4.00;3.33
67376;PMS7003;54261;46.086;6.588;2023-06-24T02:13:18;5.67;5.67;4.67
67376;PMS7003;54261;46.086;6.588;2023-06-24T02:18:21;6.00;6.00;4.33
67376;PMS7003;54261;46.086;6.588;2023-06-24T02:23:24;7.00;7.00;5.00
67376;PMS7003;54261;46.086;6.588;2023-06-24T02:28:27;7.00;7.00;5.33
67376;PMS7003;54261;46.086;6.588;2023-06-24T02:33:31;9.00;9.00;6.00
67376;PMS7003;54261;46.086;6.588;2023-06-24T02:38:33;6.33;5.67;4.00
67376;PMS7003;54261;46.086;6.588;2023-06-24T02:43:35;5.00;5.00;4.00
67376;PMS7003;54261;46.086;6.588;2023-06-24T02:48:38;7.00;7.00;5.67
67376;PMS7003;54261;46.086;6.588;2023-06-24T02:53:41;5.33;5.33;5.00
67376;PMS7003;54261;46.086;6.588;2023-06-24T02:58:47;6.00;6.00;4.00
67376;PMS7003;54261;46.086;6.588;2023-06-24T03:03:59;5.67;5.00;4.00
67376;PMS7003;54261;46.086;6.588;2023-06-24T03:09:02;7.00;7.00;5.00
67376;PMS7003;54261;46.086;6.588;2023-06-24T03:14:05;8.00;6.67;6.00
67376;PMS7003;54261;46.086;6.588;2023-06-24T03:19:14;5.00;5.00;4.00
67376;PMS7003;54261;46.086;6.588;2023-06-24T03:24:16;6.67;6.67;5.00
67376;PMS7003;54261;46.086;6.588;2023-06-24T03:29:22;6.00;6.00;4.67
67376;PMS7003;54261;46.086;6.588;2023-06-24T03:34:34;5.00;4.00;3.67
67376;PMS7003;54261;46.086;6.588;2023-06-24T03:39:36;7.67;7.67;5.00
67376;PMS7003;54261;46.086;6.588;2023-06-24T03:44:40;8.00;8.00;6.00
67376;PMS7003;54261;46.086;6.588;2023-06-24T03:49:41;7.00;7.00;5.67
67376;PMS7003;54261;46.086;6.588;2023-06-24T03:54:44;6.33;6.33;5.00
67376;PMS7003;54261;46.086;6.588;2023-06-24T03:59:46;5.33;5.33;4.33
67376;PMS7003;54261;46.086;6.588;2023-06-24T04:04:48;6.00;6.00;5.33
67376;PMS7003;54261;46.086;6.588;2023-06-24T04:09:54;7.00;6.33;5.00
67376;PMS7003;54261;46.086;6.588;2023-06-24T04:14:57;8.00;6.67;5.00
67376;PMS7003;54261;46.086;6.588;2023-06-24T04:20:00;6.00;6.00;5.00
67376;PMS7003;54261;46.086;6.588;2023-06-24T04:25:02;7.00;7.00;5.00
67376;PMS7003;54261;46.086;6.588;2023-06-24T04:30:04;5.33;5.00;5.00
67376;PMS7003;54261;46.086;6.588;2023-06-24T04:35:06;5.33;5.00;5.00
67376;PMS7003;54261;46.086;6.588;2023-06-24T04:40:10;7.00;7.00;5.00
67376;PMS7003;54261;46.086;6.588;2023-06-24T04:45:12;8.00;7.00;5.00
67376;PMS7003;54261;46.086;6.588;2023-06-24T04:50:14;9.33;8.67;7.33
67376;PMS7003;54261;46.086;6.588;2023-06-24T04:55:16;7.00;6.67;6.33
67376;PMS7003;54261;46.086;6.588;2023-06-24T05:00:18;7.00;6.00;5.00
67376;PMS7003;54261;46.086;6.588;2023-06-24T05:05:20;6.00;6.00;4.67
67376;PMS7003;54261;46.086;6.588;2023-06-24T05:10:22;5.33;5.33;4.33
67376;PMS7003;54261;46.086;6.588;2023-06-24T05:15:24;6.33;6.33;4.00
67376;PMS7003;54261;46.086;6.588;2023-06-24T05:20:26;6.00;5.33;4.00
67376;PMS7003;54261;46.086;6.588;2023-06-24T05:25:28;7.00;7.00;6.67
67376;PMS7003;54261;46.086;6.588;2023-06-24T05:30:29;6.33;6.33;5.00
67376;PMS7003;54261;46.086;6.588;2023-06-24T05:35:31;4.67;4.67;4.00
67376;PMS7003;54261;46.086;6.588;2023-06-24T05:40:34;7.67;7.67;6.00
67376;PMS7003;54261;46.086;6.588;2023-06-24T05:45:35;7.00;7.00;5.00
67376;PMS7003;54261;46.086;6.588;2023-06-24T05:50:38;8.67;8.67;5.67
67376;PMS7003;54261;46.086;6.588;2023-06-24T05:55:40;9.67;9.00;6.67
67376;PMS7003;54261;46.086;6.588;2023-06-24T06:00:41;7.00;6.00;5.67
67376;PMS7003;54261;46.086;6.588;2023-06-24T06:05:43;6.67;6.67;6.00
67376;PMS7003;54261;46.086;6.588;2023-06-24T06:10:45;6.67;6.67;5.67
67376;PMS7003;54261;46.086;6.588;2023-06-24T06:15:47;6.00;6.00;5.00
67376;PMS7003;54261;46.086;6.588;2023-06-24T06:20:49;9.00;8.00;6.67
67376;PMS7003;54261;46.086;6.588;2023-06-24T06:25:52;9.00;9.00;6.67
67376;PMS7003;54261;46.086;6.588;2023-06-24T06:30:54;6.67;6.00;5.00
67376;PMS7003;54261;46.086;6.588;2023-06-24T06:35:56;5.00;4.00;2.33
67376;PMS7003;54261;46.086;6.588;2023-06-24T06:40:58;8.00;8.00;7.00
67376;PMS7003;54261;46.086;6.588;2023-06-24T06:45:59;7.67;7.67;6.00
67376;PMS7003;54261;46.086;6.588;2023-06-24T06:51:01;7.33;6.67;5.67
67376;PMS7003;54261;46.086;6.588;2023-06-24T06:56:03;6.67;6.67;5.67
67376;PMS7003;54261;46.086;6.588;2023-06-24T07:01:05;8.00;8.00;6.00
67376;PMS7003;54261;46.086;6.588;2023-06-24T07:06:07;7.67;7.67;6.33
67376;PMS7003;54261;46.086;6.588;2023-06-24T07:11:09;6.00;6.00;6.00
67376;PMS7003;54261;46.086;6.588;2023-06-24T07:16:11;6.00;6.00;5.00
67376;PMS7003;54261;46.086;6.588;2023-06-24T07:21:13;9.00;9.00;7.33
67376;PMS7003;54261;46.086;6.588;2023-06-24T07:26:15;10.67;9.67;8.67
67376;PMS7003;54261;46.086;6.588;2023-06-24T07:31:17;10.00;9.00;7.00
67376;PMS7003;54261;46.086;6.588;2023-06-24T07:36:18;8.67;8.67;7.00
67376;PMS7003;54261;46.086;6.588;2023-06-24T07:41:21;11.00;11.00;8.67
67376;PMS7003;54261;46.086;6.588;2023-06-24T07:46:23;11.00;10.00;8.67
67376;PMS7003;54261;46.086;6.588;2023-06-24T07:51:24;12.00;11.00;8.33
67376;PMS7003;54261;46.086;6.588;2023-06-24T07:56:26;11.00;10.67;7.67
67376;PMS7003;54261;46.086;6.588;2023-06-24T08:01:28;11.33;11.33;8.33
67376;PMS7003;54261;46.086;6.588;2023-06-24T08:06:30;11.00;11.00;9.00
67376;PMS7003;54261;46.086;6.588;2023-06-24T08:11:33;9.33;9.33;8.00
67376;PMS7003;54261;46.086;6.588;2023-06-24T08:16:35;11.00;11.00;8.00
67376;PMS7003;54261;46.086;6.588;2023-06-24T08:21:36;11.67;11.67;8.00
67376;PMS7003;54261;46.086;6.588;2023-06-24T08:26:39;11.00;10.33;8.67
67376;PMS7003;54261;46.086;6.588;2023-06-24T08:31:41;11.67;10.67;8.00
67376;PMS7003;54261;46.086;6.588;2023-06-24T08:36:42;11.00;9.33;8.00
67376;PMS7003;54261;46.086;6.588;2023-06-24T08:41:44;9.67;9.67;8.00
67376;PMS7003;54261;46.086;6.588;2023-06-24T08:46:47;12.00;10.67;8.00
67376;PMS7003;54261;46.086;6.588;2023-06-24T08:51:51;10.67;10.00;8.00
67376;PMS7003;54261;46.086;6.588;2023-06-24T08:57:01;12.00;10.00;9.00
67376;PMS7003;54261;46.086;6.588;2023-06-24T09:02:06;8.67;8.67;7.00
67376;PMS7003;54261;46.086;6.588;2023-06-24T09:07:09;11.67;11.67;8.67
67376;PMS7003;54261;46.086;6.588;2023-06-24T09:12:12;10.00;10.00;9.00
67376;PMS7003;54261;46.086;6.588;2023-06-24T09:17:17;11.00;11.00;9.00
67376;PMS7003;54261;46.086;6.588;2023-06-24T12:03:05;10.33;10.00;9.00
67376;PMS7003;54261;46.086;6.588;2023-06-24T12:08:12;11.00;10.67;8.00
67376;PMS7003;54261;46.086;6.588;2023-06-24T12:13:17;11.33;11.33;9.00
67376;PMS7003;54261;46.086;6.588;2023-06-24T12:18:19;9.00;9.00;8.00
67376;PMS7003;54261;46.086;6.588;2023-06-24T12:23:21;8.67;8.00;7.67
67376;PMS7003;54261;46.086;6.588;2023-06-24T12:28:23;10.33;9.33;7.00
67376;PMS7003;54261;46.086;6.588;2023-06-24T12:33:25;10.00;10.00;8.00
67376;PMS7003;54261;46.086;6.588;2023-06-24T12:38:26;9.00;8.67;7.33
67376;PMS7003;54261;46.086;6.588;2023-06-24T12:43:28;9.00;9.00;7.67
67376;PMS7003;54261;46.086;6.588;2023-06-24T12:48:30;11.67;10.00;8.00
67376;PMS7003;54261;46.086;6.588;2023-06-24T12:53:32;12.00;11.00;8.67
67376;PMS7003;54261;46.086;6.588;2023-06-24T12:58:34;10.33;10.33;9.00
67376;PMS7003;54261;46.086;6.588;2023-06-24T13:03:36;7.00;7.00;5.00
67376;PMS7003;54261;46.086;6.588;2023-06-24T13:08:38;9.00;9.00;8.00
67376;PMS7003;54261;46.086;6.588;2023-06-24T13:13:40;11.00;10.00;9.00
67376;PMS7003;54261;46.086;6.588;2023-06-24T13:18:41;10.67;10.67;9.67
67376;PMS7003;54261;46.086;6.588;2023-06-24T13:23:43;10.67;10.00;8.00
67376;PMS7003;54261;46.086;6.588;2023-06-24T13:28:45;9.00;7.67;6.00
67376;PMS7003;54261;46.086;6.588;2023-06-24T13:33:47;10.33;10.33;8.00
67376;PMS7003;54261;46.086;6.588;2023-06-24T13:38:49;9.67;9.67;8.33
67376;PMS7003;54261;46.086;6.588;2023-06-24T13:43:51;11.00;11.00;8.67
67376;PMS7003;54261;46.086;6.588;2023-06-24T13:48:52;10.00;10.00;9.00
67376;PMS7003;54261;46.086;6.588;2023-06-24T13:53:55;11.00;11.00;9.67
67376;PMS7003;54261;46.086;6.588;2023-06-24T13:58:57;10.67;10.67;9.00
67376;PMS7003;54261;46.086;6.588;2023-06-24T14:03:59;11.00;11.00;9.33
67376;PMS7003;54261;46.086;6.588;2023-06-24T14:09:01;14.00;10.00;9.00
67376;PMS7003;54261;46.086;6.588;2023-06-24T14:14:03;9.33;7.67;7.00
67376;PMS7003;54261;46.086;6.588;2023-06-24T14:19:05;12.33;11.33;10.00
67376;PMS7003;54261;46.086;6.588;2023-06-24T14:24:07;12.00;11.00;8.33
67376;PMS7003;54261;46.086;6.588;2023-06-24T14:29:17;10.00;10.00;8.67
67376;PMS7003;54261;46.086;6.588;2023-06-24T14:34:19;12.00;12.00;9.67
67376;PMS7003;54261;46.086;6.588;2023-06-24T14:39:21;10.67;10.67;9.00
67376;PMS7003;54261;46.086;6.588;2023-06-24T14:44:23;11.33;9.33;7.67
67376;PMS7003;54261;46.086;6.588;2023-06-24T14:49:24;9.33;9.33;8.33
67376;PMS7003;54261;46.086;6.588;2023-06-24T14:54:26;9.00;9.00;8.67
67376;PMS7003;54261;46.086;6.588;2023-06-24T14:59:28;10.67;10.67;9.33
67376;PMS7003;54261;46.086;6.588;2023-06-24T15:04:30;11.67;11.67;10.00
67376;PMS7003;54261;46.086;6.588;2023-06-24T15:09:32;10.33;10.33;8.33
67376;PMS7003;54261;46.086;6.588;2023-06-24T15:14:38;8.33;8.33;6.67
67376;PMS7003;54261;46.086;6.588;2023-06-24T15:19:40;8.75;8.75;8.00
67376;PMS7003;54261;46.086;6.588;2023-06-24T15:24:42;10.67;10.00;9.00
67376;PMS7003;54261;46.086;6.588;2023-06-24T15:29:46;11.33;10.67;9.67
67376;PMS7003;54261;46.086;6.588;2023-06-24T15:34:48;12.67;11.67;9.33
67376;PMS7003;54261;46.086;6.588;2023-06-24T15:39:50;9.00;9.00;7.00
67376;PMS7003;54261;46.086;6.588;2023-06-24T15:44:51;11.33;11.33;9.67
67376;PMS7003;54261;46.086;6.588;2023-06-24T15:49:53;10.33;10.33;8.67
67376;PMS7003;54261;46.086;6.588;2023-06-24T15:54:55;10.00;10.00;8.50
67376;PMS7003;54261;46.086;6.588;2023-06-24T15:59:57;12.67;11.33;9.67
67376;PMS7003;54261;46.086;6.588;2023-06-24T16:04:59;11.00;11.00;9.33
67376;PMS7003;54261;46.086;6.588;2023-06-24T16:10:06;12.00;12.00;10.00
67376;PMS7003;54261;46.086;6.588;2023-06-24T16:15:09;10.67;10.67;9.33
67376;PMS7003;54261;46.086;6.588;2023-06-24T16:20:11;7.67;7.67;7.00
67376;PMS7003;54261;46.086;6.588;2023-06-24T16:25:17;12.00;10.67;8.67
67376;PMS7003;54261;46.086;6.588;2023-06-24T16:30:19;9.33;9.33;9.00
67376;PMS7003;54261;46.086;6.588;2023-06-24T16:35:22;11.00;10.33;8.67
67376;PMS7003;54261;46.086;6.588;2023-06-24T16:40:24;9.33;9.33;7.00
67376;PMS7003;54261;46.086;6.588;2023-06-24T16:45:29;9.33;9.33;8.33
67376;PMS7003;54261;46.086;6.588;2023-06-24T16:50:31;11.33;11.33;9.33
67376;PMS7003;54261;46.086;6.588;2023-06-24T16:55:37;14.00;14.00;11.00
67376;PMS7003;54261;46.086;6.588;2023-06-24T17:00:39;11.67;11.67;10.00
67376;PMS7003;54261;46.086;6.588;2023-06-24T17:05:40;12.67;12.33;9.33
67376;PMS7003;54261;46.086;6.588;2023-06-24T17:10:42;14.00;12.00;9.00
67376;PMS7003;54261;46.086;6.588;2023-06-24T17:15:44;11.33;11.33;10.00
67376;PMS7003;54261;46.086;6.588;2023-06-24T17:20:48;11.33;11.33;9.00
67376;PMS7003;54261;46.086;6.588;2023-06-24T17:25:50;10.33;10.33;8.33
67376;PMS7003;54261;46.086;6.588;2023-06-24T17:30:52;11.00;11.00;8.67
67376;PMS7003;54261;46.086;6.588;2023-06-24T17:35:54;11.33;11.33;9.33
67376;PMS7003;54261;46.086;6.588;2023-06-24T17:40:57;12.33;12.33;10.33
67376;PMS7003;54261;46.086;6.588;2023-06-24T17:45:59;10.33;10.33;9.67
67376;PMS7003;54261;46.086;6.588;2023-06-24T17:51:01;11.33;11.33;9.00
67376;PMS7003;54261;46.086;6.588;2023-06-24T17:56:04;11.00;10.67;9.67
67376;PMS7003;54261;46.086;6.588;2023-06-24T18:01:06;12.00;12.00;10.00
67376;PMS7003;54261;46.086;6.588;2023-06-24T18:06:10;10.33;9.33;9.33
67376;PMS7003;54261;46.086;6.588;2023-06-24T18:11:12;12.33;11.00;9.00
67376;PMS7003;54261;46.086;6.588;2023-06-24T18:16:14;10.00;10.00;9.67
67376;PMS7003;54261;46.086;6.588;2023-06-24T18:21:16;9.33;9.33;8.33
67376;PMS7003;54261;46.086;6.588;2023-06-24T18:26:18;15.33;14.00;12.33
67376;PMS7003;54261;46.086;6.588;2023-06-24T18:31:20;12.33;12.33;10.00
67376;PMS7003;54261;46.086;6.588;2023-06-24T18:36:22;14.00;13.33;11.33
67376;PMS7003;54261;46.086;6.588;2023-06-24T18:41:24;11.33;11.33;9.33
67376;PMS7003;54261;46.086;6.588;2023-06-24T18:46:26;12.00;12.00;9.33
67376;PMS7003;54261;46.086;6.588;2023-06-24T18:51:28;11.00;11.00;9.67
67376;PMS7003;54261;46.086;6.588;2023-06-24T18:56:29;12.33;11.33;8.33
67376;PMS7003;54261;46.086;6.588;2023-06-24T19:01:31;11.33;11.33;9.00
67376;PMS7003;54261;46.086;6.588;2023-06-24T19:06:33;15.67;14.67;12.00
67376;PMS7003;54261;46.086;6.588;2023-06-24T19:11:36;15.33;14.33;11.00
67376;PMS7003;54261;46.086;6.588;2023-06-24T19:16:38;17.33;16.67;13.67
67376;PMS7003;54261;46.086;6.588;2023-06-24T19:21:40;9.00;9.00;7.33
67376;PMS7003;54261;46.086;6.588;2023-06-24T19:26:42;14.33;13.00;10.00
67376;PMS7003;54261;46.086;6.588;2023-06-24T19:31:44;12.00;11.00;9.33
67376;PMS7003;54261;46.086;6.588;2023-06-24T19:36:46;12.00;12.00;10.00
67376;PMS7003;54261;46.086;6.588;2023-06-24T19:41:47;13.33;13.00;10.00
67376;PMS7003;54261;46.086;6.588;2023-06-24T19:46:49;9.33;8.00;5.67
67376;PMS7003;54261;46.086;6.588;2023-06-24T19:51:51;12.00;12.00;9.67
67376;PMS7003;54261;46.086;6.588;2023-06-24T19:56:53;14.00;14.00;10.33
67376;PMS7003;54261;46.086;6.588;2023-06-24T20:01:55;11.67;11.67;9.00
67376;PMS7003;54261;46.086;6.588;2023-06-24T20:06:57;9.00;9.00;7.67
67376;PMS7003;54261;46.086;6.588;2023-06-24T20:11:59;13.33;13.33;9.67
67376;PMS7003;54261;46.086;6.588;2023-06-24T20:17:00;10.33;10.00;8.00
67376;PMS7003;54261;46.086;6.588;2023-06-24T20:22:02;12.33;11.67;10.00
67376;PMS7003;54261;46.086;6.588;2023-06-24T20:27:04;11.00;11.00;9.00
67376;PMS7003;54261;46.086;6.588;2023-06-24T20:32:06;12.33;11.33;10.00
67376;PMS7003;54261;46.086;6.588;2023-06-24T20:37:08;10.33;10.33;7.00
67376;PMS7003;54261;46.086;6.588;2023-06-24T20:42:10;11.33;11.33;8.00
67376;PMS7003;54261;46.086;6.588;2023-06-24T20:47:12;9.00;9.00;8.00
67376;PMS7003;54261;46.086;6.588;2023-06-24T20:52:14;12.67;10.67;9.00
67376;PMS7003;54261;46.086;6.588;2023-06-24T20:57:16;11.67;10.67;9.00
67376;PMS7003;54261;46.086;6.588;2023-06-24T21:02:17;13.33;13.00;10.00
67376;PMS7003;54261;46.086;6.588;2023-06-24T21:07:19;11.33;11.33;9.67
67376;PMS7003;54261;46.086;6.588;2023-06-24T21:12:21;12.00;12.00;8.00
67376;PMS7003;54261;46.086;6.588;2023-06-24T21:17:23;11.00;10.33;8.67
67376;PMS7003;54261;46.086;6.588;2023-06-24T21:22:25;11.00;11.00;9.00
67376;PMS7003;54261;46.086;6.588;2023-06-24T21:27:27;8.67;8.67;8.00
67376;PMS7003;54261;46.086;6.588;2023-06-24T21:32:29;12.00;11.33;9.67
67376;PMS7003;54261;46.086;6.588;2023-06-24T21:37:31;10.67;10.67;9.00
67376;PMS7003;54261;46.086;6.588;2023-06-24T21:42:33;12.00;12.00;10.33
67376;PMS7003;54261;46.086;6.588;2023-06-24T21:47:35;13.67;13.67;11.00
67376;PMS7003;54261;46.086;6.588;2023-06-24T21:52:37;10.67;10.67;8.33
67376;PMS7003;54261;46.086;6.588;2023-06-24T21:57:38;13.00;12.33;10.67
67376;PMS7003;54261;46.086;6.588;2023-06-24T22:02:40;14.33;13.33;10.33
67376;PMS7003;54261;46.086;6.588;2023-06-24T22:07:42;12.00;12.00;9.33
67376;PMS7003;54261;46.086;6.588;2023-06-24T22:12:44;12.67;12.67;9.67
67376;PMS7003;54261;46.086;6.588;2023-06-24T22:17:46;13.33;13.33;11.33
67376;PMS7003;54261;46.086;6.588;2023-06-24T22:22:48;12.67;12.67;9.67
67376;PMS7003;54261;46.086;6.588;2023-06-24T22:27:50;13.33;13.33;11.00
67376;PMS7003;54261;46.086;6.588;2023-06-24T22:32:52;14.67;14.67;10.00
67376;PMS7003;54261;46.086;6.588;2023-06-24T22:37:54;12.00;12.00;9.67
67376;PMS7003;54261;46.086;6.588;2023-06-24T22:42:55;14.33;13.33;11.33
67376;PMS7003;54261;46.086;6.588;2023-06-24T22:47:57;14.00;14.00;10.67
67376;PMS7003;54261;46.086;6.588;2023-06-24T22:53:00;11.67;11.67;10.33
67376;PMS7003;54261;46.086;6.588;2023-06-24T22:58:02;11.67;11.67;8.67
67376;PMS7003;54261;46.086;6.588;2023-06-24T23:03:04;13.33;12.33;9.00
67376;PMS7003;54261;46.086;6.588;2023-06-24T23:08:06;14.00;14.00;12.33
67376;PMS7003;54261;46.086;6.588;2023-06-24T23:13:08;14.67;13.67;11.00
67376;PMS7003;54261;46.086;6.588;2023-06-24T23:18:11;16.33;15.00;11.00
67376;PMS7003;54261;46.086;6.588;2023-06-24T23:23:13;13.00;13.00;10.33
67376;PMS7003;54261;46.086;6.588;2023-06-24T23:28:15;16.00;15.67;12.67
67376;PMS7003;54261;46.086;6.588;2023-06-24T23:33:17;14.67;14.67;12.00
67376;PMS7003;54261;46.086;6.588;2023-06-24T23:38:19;16.00;16.00;11.67
67376;PMS7003;54261;46.086;6.588;2023-06-24T23:43:22;13.67;13.67;10.67
67376;PMS7003;54261;46.086;6.588;2023-06-24T23:48:23;12.33;12.33;10.00
67376;PMS7003;54261;46.086;6.588;2023-06-24T23:53:25;13.33;13.33;10.67
67376;PMS7003;54261;46.086;6.588;2023-06-24T23:58:27;12.33;12.33;10.00
